Time;durP1;ratioP1;P1;durP2;ratioP2;P2;SDS_P1;SDS_P2;PMS_P1;PMS_P2;Temp;Humidity;BMP_temperature;BMP_pressure;BME280_temperature;BME280_humidity;BME280_pressure;Samples;Min_cycle;Max_cycle;Signal;HPM_P1;HPM_P2
2022/07/02 00:13:08;;;;;;;8.05;3.55;;;;;;;20.12;49.90;100398.78;30925584;28;20046;-71
2022/07/02 00:28:16;;;;;;;10.93;3.60;;;;;;;20.00;51.20;100409.66;30924561;28;20059;-71
2022/07/02 00:43:20;;;;;;;6.47;3.25;;;;;;;19.73;51.91;100420.94;30913529;28;20054;-71
2022/07/02 00:58:22;;;;;;;6.75;3.25;;;;;;;19.59;50.92;100416.19;30914117;28;20057;-71
2022/07/02 01:13:26;;;;;;;6.90;3.78;;;;;;;19.44;52.33;100451.91;30923073;28;20058;-72
2022/07/02 01:28:28;;;;;;;6.30;3.37;;;;;;;19.16;52.07;100467.06;30929713;28;20047;-72
2022/07/02 01:43:30;;;;;;;8.45;4.40;;;;;;;18.89;53.00;100484.53;30936690;28;20061;-71
2022/07/02 01:58:31;;;;;;;8.18;3.53;;;;;;;18.46;52.25;100502.22;30954525;28;20046;-70
2022/07/02 02:13:33;;;;;;;6.95;4.07;;;;;;;18.25;51.67;100528.66;30913512;28;20063;-71
2022/07/02 02:28:35;;;;;;;9.75;4.75;;;;;;;18.30;51.00;100550.03;30937728;28;20057;-72
2022/07/02 02:43:37;;;;;;;11.32;4.05;;;;;;;18.25;49.79;100575.38;30921284;28;20411;-71
2022/07/02 02:58:39;;;;;;;10.02;5.68;;;;;;;18.43;49.83;100597.34;30941059;28;20456;-71
2022/07/02 03:13:42;;;;;;;12.73;6.32;;;;;;;18.52;49.15;100613.06;30919571;28;20059;-72
2022/07/02 03:28:43;;;;;;;16.13;6.50;;;;;;;18.61;48.58;100624.09;30945983;28;20058;-77
2022/07/02 03:43:45;;;;;;;11.18;6.53;;;;;;;18.73;46.87;100629.41;30925192;28;20055;-77
2022/07/02 03:58:47;;;;;;;18.98;7.35;;;;;;;18.84;44.54;100631.69;30939807;28;20054;-77
2022/07/02 04:13:49;;;;;;;11.85;4.80;;;;;;;19.20;40.47;100641.03;30931024;28;20054;-78
2022/07/02 04:28:51;;;;;;;14.13;5.13;;;;;;;19.76;39.57;100643.09;30922805;28;20062;-77
2022/07/02 04:43:53;;;;;;;17.60;5.50;;;;;;;20.39;37.92;100655.69;30938840;28;20081;-77
2022/07/02 04:58:55;;;;;;;7.88;2.80;;;;;;;20.02;35.85;100671.72;30943886;28;20046;-76
2022/07/02 05:13:58;;;;;;;6.32;3.55;;;;;;;20.40;35.34;100679.25;30951281;28;20053;-77
2022/07/02 05:28:59;;;;;;;6.68;1.70;;;;;;;20.89;35.68;100685.41;30955538;28;20054;-76
2022/07/02 05:44:02;;;;;;;6.72;2.03;;;;;;;21.37;35.04;100686.75;30976393;28;20523;-76
2022/07/02 05:59:04;;;;;;;3.95;1.25;;;;;;;21.56;34.23;100679.00;31009547;28;20042;-77
2022/07/02 06:14:07;;;;;;;4.07;1.40;;;;;;;22.20;34.22;100666.31;30972884;28;20061;-76
2022/07/02 06:29:12;;;;;;;3.22;1.17;;;;;;;22.40;33.21;100677.34;30972377;28;20057;-76
2022/07/02 06:44:14;;;;;;;3.20;1.48;;;;;;;22.67;32.84;100678.91;30937172;28;20432;-77
2022/07/02 06:59:16;;;;;;;3.10;1.20;;;;;;;22.86;32.23;100659.97;30935930;28;20039;-77
2022/07/02 07:14:19;;;;;;;2.63;1.70;;;;;;;23.19;32.22;100665.78;30963792;28;20057;-75
2022/07/02 07:29:21;;;;;;;2.37;1.40;;;;;;;23.85;30.34;100675.81;30953620;28;20050;-74
2022/07/02 07:44:23;;;;;;;4.33;2.03;;;;;;;24.60;29.99;100688.19;30930833;28;20055;-74
2022/07/02 07:59:25;;;;;;;5.83;3.23;;;;;;;24.91;28.81;100678.91;30951137;28;20053;-74
2022/07/02 08:14:27;;;;;;;5.72;1.90;;;;;;;25.26;27.88;100689.56;30965949;28;20062;-75
2022/07/02 08:29:29;;;;;;;6.90;2.20;;;;;;;26.00;27.00;100702.81;30927263;28;20072;-77
2022/07/02 08:44:32;;;;;;;4.60;2.00;;;;;;;26.46;26.75;100698.59;30931425;28;20050;-78
2022/07/02 08:59:34;;;;;;;4.20;1.23;;;;;;;26.74;25.56;100713.09;30908266;28;20046;-76
2022/07/02 09:14:36;;;;;;;3.03;1.60;;;;;;;27.10;25.86;100704.78;30932851;28;20053;-77
2022/07/02 09:29:43;;;;;;;7.20;2.45;;;;;;;27.66;24.68;100688.31;30929434;28;20068;-76
2022/07/02 09:44:46;;;;;;;3.75;1.17;;;;;;;28.54;24.51;100673.81;30943688;28;20055;-75
2022/07/02 09:59:48;;;;;;;3.78;2.42;;;;;;;28.72;23.40;100684.19;30946367;28;20050;-75
2022/07/02 10:14:54;;;;;;;10.77;3.00;;;;;;;29.31;22.94;100682.22;30932681;28;20427;-76
2022/07/02 10:29:57;;;;;;;4.30;2.78;;;;;;;29.66;22.75;100661.53;30951168;28;20054;-76
2022/07/02 10:45:08;;;;;;;2.72;1.13;;;;;;;29.99;23.31;100670.56;30966738;28;20098;-75
2022/07/02 11:00:15;;;;;;;5.13;1.30;;;;;;;30.68;22.71;100664.47;30938987;28;20089;-75
2022/07/02 11:15:38;;;;;;;4.80;1.05;;;;;;;30.11;23.33;100655.78;30917604;28;20050;-74
2022/07/02 11:30:40;;;;;;;6.72;1.00;;;;;;;27.66;25.38;100648.50;30932075;28;20413;-74
2022/07/02 11:45:46;;;;;;;2.83;1.30;;;;;;;26.90;26.43;100636.28;30962316;28;20054;-72
2022/07/02 12:00:48;;;;;;;4.55;1.08;;;;;;;25.92;27.63;100637.88;30959899;28;20130;-74
2022/07/02 12:15:50;;;;;;;4.82;1.58;;;;;;;25.64;27.65;100648.31;30994599;28;20066;-73
2022/07/02 12:30:53;;;;;;;;;;;;;;;25.31;28.98;100644.31;30982629;28;20108;-73
2022/07/02 12:46:07;;;;;;;1.95;1.30;;;;;;;25.60;29.33;100637.44;30969495;28;19922;-73
2022/07/02 13:01:09;;;;;;;3.78;1.38;;;;;;;25.39;29.18;100628.66;30934045;28;20810;-73
2022/07/02 13:16:11;;;;;;;3.55;1.45;;;;;;;25.37;30.09;100614.50;30926734;28;20046;-73
2022/07/02 13:31:13;;;;;;;3.80;1.37;;;;;;;25.28;30.10;100606.44;30988542;28;20054;-73
2022/07/02 13:46:16;;;;;;;3.08;1.40;;;;;;;25.08;30.78;100603.94;30960631;28;20806;-74
2022/07/02 14:01:18;;;;;;;2.90;1.50;;;;;;;25.18;31.17;100591.31;31004443;28;20086;-73
2022/07/02 14:16:20;;;;;;;6.88;1.48;;;;;;;24.96;31.35;100586.53;30983388;28;20101;-75
2022/07/02 14:31:22;;;;;;;;;;;;;;;25.02;31.91;100589.31;30964053;28;20441;-73
2022/07/02 14:46:30;;;;;;;5.00;1.23;;;;;;;24.99;31.36;100601.44;30971872;28;20000;-73
2022/07/02 15:01:32;;;;;;;5.75;2.20;;;;;;;24.85;32.24;100596.84;30942316;28;20062;-73
2022/07/02 15:16:34;;;;;;;3.53;1.37;;;;;;;24.77;32.73;100586.28;30918898;28;20059;-73
2022/07/02 15:31:41;;;;;;;2.27;1.10;;;;;;;24.67;32.29;100589.78;30966893;28;20098;-72
2022/07/02 15:46:49;;;;;;;1.97;1.00;;;;;;;24.52;32.38;100598.38;30964321;28;20324;-74
2022/07/02 16:01:54;;;;;;;;;;;;;;;24.41;33.30;100606.69;30937217;28;20046;-72
2022/07/02 16:16:57;;;;;;;2.30;1.00;;;;;;;24.23;33.23;100609.88;30957599;28;20368;-74
2022/07/02 16:32:00;;;;;;;;;;;;;;;23.84;34.46;100607.75;30941648;28;20058;-75
2022/07/02 16:47:05;;;;;;;1.93;1.07;;;;;;;23.43;36.17;100613.56;30930171;28;20302;-73
2022/07/02 17:02:19;;;;;;;4.07;1.75;;;;;;;23.18;37.12;100606.09;30929460;28;20047;-74
2022/07/02 17:17:21;;;;;;;1.85;0.90;;;;;;;23.09;36.88;100603.53;30959213;28;20047;-73
2022/07/02 17:32:23;;;;;;;6.07;1.80;;;;;;;22.89;37.74;100609.16;30956553;28;20050;-72
2022/07/02 17:47:25;;;;;;;5.67;1.70;;;;;;;22.52;38.66;100604.28;30979177;28;20504;-74
2022/07/02 18:02:27;;;;;;;6.72;1.88;;;;;;;22.32;40.15;100612.63;30970394;28;20067;-75
2022/07/02 18:17:29;;;;;;;5.30;2.67;;;;;;;22.36;39.66;100638.06;30932160;28;20059;-73
2022/07/02 18:32:31;;;;;;;7.68;3.88;;;;;;;22.18;39.89;100657.75;30963665;28;20054;-73
2022/07/02 18:47:33;;;;;;;4.60;2.30;;;;;;;21.83;40.63;100647.47;30984222;28;20050;-74
2022/07/02 19:02:35;;;;;;;6.03;2.00;;;;;;;21.46;41.51;100676.84;30986229;28;20058;-73
2022/07/02 19:17:37;;;;;;;9.57;2.78;;;;;;;21.11;42.65;100678.28;30980517;28;20085;-73
2022/07/02 19:32:39;;;;;;;7.82;3.05;;;;;;;20.74;43.44;100691.69;30917670;28;20416;-74
2022/07/02 19:47:41;;;;;;;8.23;2.00;;;;;;;20.52;43.94;100669.22;30918872;28;20054;-73
2022/07/02 20:02:43;;;;;;;3.95;2.30;;;;;;;20.35;44.94;100659.81;30912497;28;20050;-73
2022/07/02 20:17:49;;;;;;;4.77;1.67;;;;;;;20.09;46.06;100682.38;30920868;28;20549;-73
2022/07/02 20:32:52;;;;;;;7.53;4.03;;;;;;;19.95;46.75;100699.63;30899270;28;20065;-76
2022/07/02 20:47:54;;;;;;;9.05;2.20;;;;;;;19.73;47.05;100715.66;30920652;28;20051;-76
2022/07/02 21:02:56;;;;;;;5.38;2.17;;;;;;;19.60;47.67;100720.63;30907848;28;20547;-75
2022/07/02 21:17:59;;;;;;;7.65;3.20;;;;;;;19.51;48.20;100720.66;30916436;28;20061;-76
2022/07/02 21:33:01;;;;;;;20.73;9.65;;;;;;;19.28;48.71;100708.31;30944693;28;20056;-75
2022/07/02 21:48:03;;;;;;;4.07;2.05;;;;;;;19.07;49.20;100708.06;30976460;28;20050;-75
2022/07/02 22:03:05;;;;;;;4.70;2.10;;;;;;;18.93;49.47;100713.41;30935340;28;20053;-75
2022/07/02 22:18:07;;;;;;;4.22;2.20;;;;;;;18.71;50.12;100708.84;30959815;28;20054;-75
2022/07/02 22:33:09;;;;;;;6.88;2.50;;;;;;;18.57;50.21;100697.69;30948067;28;20081;-75
2022/07/02 22:48:12;;;;;;;6.38;2.75;;;;;;;18.45;50.64;100704.09;30932883;28;20058;-75
2022/07/02 23:03:13;;;;;;;18.38;6.13;;;;;;;18.35;51.14;100700.59;30931181;28;20054;-75
2022/07/02 23:18:16;;;;;;;5.97;3.53;;;;;;;18.21;51.95;100701.94;30939232;28;20086;-75
2022/07/02 23:33:18;;;;;;;5.95;3.28;;;;;;;18.13;52.55;100699.97;30939962;28;20062;-75
2022/07/02 23:48:20;;;;;;;12.90;3.45;;;;;;;17.94;53.43;100708.16;30905003;28;20046;-75
